sensor_id;sensor_type;location;lat;lon;timestamp;pressure;altitude;pressure_sealevel;temperature;humidity
63535;BME280;55128;50.230;18.944;2023-06-19T00:04:06;98398.72;;;13.61;81.53
63535;BME280;55128;50.230;18.944;2023-06-19T00:09:06;98403.00;;;13.64;81.53
63535;BME280;55128;50.230;18.944;2023-06-19T00:14:07;98403.88;;;13.50;82.10
63535;BME280;55128;50.230;18.944;2023-06-19T00:19:07;98409.28;;;13.49;82.39
63535;BME280;55128;50.230;18.944;2023-06-19T00:24:07;98402.34;;;13.46;82.54
63535;BME280;55128;50.230;18.944;2023-06-19T00:29:08;98405.69;;;13.50;83.17
63535;BME280;55128;50.230;18.944;2023-06-19T00:34:08;98407.94;;;13.41;82.83
63535;BME280;55128;50.230;18.944;2023-06-19T00:39:08;98412.44;;;13.41;83.07
63535;BME280;55128;50.230;18.944;2023-06-19T00:44:09;98409.09;;;13.37;83.20
63535;BME280;55128;50.230;18.944;2023-06-19T00:49:10;98400.41;;;13.34;82.78
63535;BME280;55128;50.230;18.944;2023-06-19T00:54:10;98397.13;;;13.29;83.03
63535;BME280;55128;50.230;18.944;2023-06-19T00:59:19;98402.09;;;13.20;83.28
63535;BME280;55128;50.230;18.944;2023-06-19T01:04:20;98395.59;;;13.10;83.71
63535;BME280;55128;50.230;18.944;2023-06-19T01:09:21;98399.38;;;13.06;84.39
63535;BME280;55128;50.230;18.944;2023-06-19T01:14:25;98391.59;;;13.03;83.96
63535;BME280;55128;50.230;18.944;2023-06-19T01:19:26;98388.16;;;13.01;84.04
63535;BME280;55128;50.230;18.944;2023-06-19T01:24:27;98394.25;;;13.03;83.36
63535;BME280;55128;50.230;18.944;2023-06-19T01:29:28;98391.16;;;12.95;84.19
63535;BME280;55128;50.230;18.944;2023-06-19T01:34:29;98394.59;;;12.97;83.52
63535;BME280;55128;50.230;18.944;2023-06-19T01:39:31;98398.00;;;12.84;84.53
63535;BME280;55128;50.230;18.944;2023-06-19T01:44:32;98389.00;;;13.01;84.89
63535;BME280;55128;50.230;18.944;2023-06-19T01:49:33;98394.75;;;12.79;84.36
63535;BME280;55128;50.230;18.944;2023-06-19T01:54:33;98398.16;;;12.81;84.37
63535;BME280;55128;50.230;18.944;2023-06-19T01:59:34;98397.50;;;12.78;84.87
63535;BME280;55128;50.230;18.944;2023-06-19T02:04:34;98402.34;;;12.71;84.57
63535;BME280;55128;50.230;18.944;2023-06-19T02:09:37;98411.53;;;12.66;85.05
63535;BME280;55128;50.230;18.944;2023-06-19T02:14:37;98403.72;;;12.62;84.35
63535;BME280;55128;50.230;18.944;2023-06-19T02:19:38;98416.88;;;12.50;85.05
63535;BME280;55128;50.230;18.944;2023-06-19T02:24:38;98402.78;;;12.48;85.49
63535;BME280;55128;50.230;18.944;2023-06-19T02:29:39;98407.78;;;12.54;85.21
63535;BME280;55128;50.230;18.944;2023-06-19T02:34:39;98406.59;;;12.43;85.50
63535;BME280;55128;50.230;18.944;2023-06-19T02:39:40;98402.03;;;12.45;85.55
63535;BME280;55128;50.230;18.944;2023-06-19T02:44:40;98403.16;;;12.41;85.85
63535;BME280;55128;50.230;18.944;2023-06-19T02:49:42;98408.88;;;12.50;86.01
63535;BME280;55128;50.230;18.944;2023-06-19T02:54:42;98410.47;;;12.54;85.86
63535;BME280;55128;50.230;18.944;2023-06-19T02:59:43;98412.31;;;12.52;85.66
63535;BME280;55128;50.230;18.944;2023-06-19T03:04:43;98418.56;;;12.67;86.11
63535;BME280;55128;50.230;18.944;2023-06-19T03:09:46;98426.53;;;12.82;86.42
63535;BME280;55128;50.230;18.944;2023-06-19T03:14:47;98427.16;;;13.32;85.29
63535;BME280;55128;50.230;18.944;2023-06-19T03:19:47;98423.50;;;13.64;83.65
63535;BME280;55128;50.230;18.944;2023-06-19T03:24:47;98429.97;;;13.88;84.02
63535;BME280;55128;50.230;18.944;2023-06-19T03:29:48;98427.25;;;14.31;81.30
63535;BME280;55128;50.230;18.944;2023-06-19T03:34:48;98414.81;;;14.59;78.71
63535;BME280;55128;50.230;18.944;2023-06-19T03:39:48;98420.47;;;14.67;78.74
63535;BME280;55128;50.230;18.944;2023-06-19T03:44:49;98425.09;;;14.51;78.88
63535;BME280;55128;50.230;18.944;2023-06-19T03:49:50;98423.66;;;14.60;79.75
63535;BME280;55128;50.230;18.944;2023-06-19T03:54:50;98422.88;;;14.72;78.89
63535;BME280;55128;50.230;18.944;2023-06-19T03:59:50;98432.06;;;14.81;80.40
63535;BME280;55128;50.230;18.944;2023-06-19T04:04:53;98429.19;;;15.24;80.00
63535;BME280;55128;50.230;18.944;2023-06-19T04:09:54;98433.00;;;16.35;76.03
63535;BME280;55128;50.230;18.944;2023-06-19T04:14:54;98439.09;;;17.34;74.24
63535;BME280;55128;50.230;18.944;2023-06-19T04:19:55;98436.13;;;18.40;69.13
63535;BME280;55128;50.230;18.944;2023-06-19T04:24:55;98432.69;;;19.04;66.44
63535;BME280;55128;50.230;18.944;2023-06-19T04:29:55;98439.38;;;19.52;65.92
63535;BME280;55128;50.230;18.944;2023-06-19T04:34:56;98444.44;;;20.58;61.43
63535;BME280;55128;50.230;18.944;2023-06-19T04:39:57;98439.97;;;20.78;60.85
63535;BME280;55128;50.230;18.944;2023-06-19T04:44:57;98441.81;;;21.76;58.69
63535;BME280;55128;50.230;18.944;2023-06-19T04:50:00;98448.09;;;22.69;55.51
63535;BME280;55128;50.230;18.944;2023-06-19T04:55:00;98444.28;;;23.25;54.39
63535;BME280;55128;50.230;18.944;2023-06-19T05:00:00;98442.69;;;24.03;51.73
63535;BME280;55128;50.230;18.944;2023-06-19T05:05:01;98452.66;;;24.63;49.52
63535;BME280;55128;50.230;18.944;2023-06-19T05:10:03;98458.22;;;25.20;49.07
63535;BME280;55128;50.230;18.944;2023-06-19T05:15:04;98458.94;;;25.64;47.24
63535;BME280;55128;50.230;18.944;2023-06-19T05:20:05;98461.50;;;26.46;45.10
63535;BME280;55128;50.230;18.944;2023-06-19T05:25:09;98459.47;;;27.65;42.41
63535;BME280;55128;50.230;18.944;2023-06-19T05:30:10;98468.41;;;28.41;39.08
63535;BME280;55128;50.230;18.944;2023-06-19T05:35:13;98464.06;;;28.02;40.07
63535;BME280;55128;50.230;18.944;2023-06-19T05:52:07;98490.38;;;30.29;35.41
63535;BME280;55128;50.230;18.944;2023-06-19T05:57:08;98491.63;;;30.54;35.84
63535;BME280;55128;50.230;18.944;2023-06-19T06:02:08;98495.53;;;31.22;34.34
63535;BME280;55128;50.230;18.944;2023-06-19T06:07:08;98501.19;;;31.07;33.53
63535;BME280;55128;50.230;18.944;2023-06-19T06:12:09;98501.56;;;31.92;33.06
63535;BME280;55128;50.230;18.944;2023-06-19T06:17:09;98501.97;;;31.00;32.13
63535;BME280;55128;50.230;18.944;2023-06-19T06:22:10;98493.94;;;31.94;30.39
63535;BME280;55128;50.230;18.944;2023-06-19T06:27:10;98505.75;;;33.51;28.24
63535;BME280;55128;50.230;18.944;2023-06-19T06:32:10;98500.84;;;33.28;29.31
63535;BME280;55128;50.230;18.944;2023-06-19T06:37:10;98509.53;;;34.39;28.75
63535;BME280;55128;50.230;18.944;2023-06-19T06:42:11;98514.69;;;34.54;28.80
63535;BME280;55128;50.230;18.944;2023-06-19T06:47:11;98510.41;;;34.15;28.96
63535;BME280;55128;50.230;18.944;2023-06-19T06:52:11;98522.25;;;34.40;28.49
63535;BME280;55128;50.230;18.944;2023-06-19T06:57:12;98534.56;;;35.00;26.42
63535;BME280;55128;50.230;18.944;2023-06-19T07:02:12;98531.75;;;35.97;26.13
63535;BME280;55128;50.230;18.944;2023-06-19T07:07:13;98537.00;;;35.57;26.44
63535;BME280;55128;50.230;18.944;2023-06-19T07:12:13;98541.84;;;35.61;26.75
63535;BME280;55128;50.230;18.944;2023-06-19T07:17:14;98545.25;;;36.41;25.27
63535;BME280;55128;50.230;18.944;2023-06-19T07:22:14;98540.72;;;36.58;24.61
63535;BME280;55128;50.230;18.944;2023-06-19T07:27:14;98539.59;;;36.59;24.21
63535;BME280;55128;50.230;18.944;2023-06-19T07:32:15;98549.91;;;36.17;25.02
63535;BME280;55128;50.230;18.944;2023-06-19T07:37:15;98553.41;;;39.39;20.92
63535;BME280;55128;50.230;18.944;2023-06-19T07:42:18;98558.03;;;38.50;21.94
63535;BME280;55128;50.230;18.944;2023-06-19T07:47:19;98556.59;;;37.68;22.00
63535;BME280;55128;50.230;18.944;2023-06-19T07:52:23;98561.88;;;39.76;20.78
63535;BME280;55128;50.230;18.944;2023-06-19T07:57:24;98550.28;;;39.84;20.43
63535;BME280;55128;50.230;18.944;2023-06-19T08:02:25;98557.91;;;40.59;19.71
63535;BME280;55128;50.230;18.944;2023-06-19T08:07:27;98553.22;;;40.00;19.04
63535;BME280;55128;50.230;18.944;2023-06-19T08:12:27;98556.84;;;38.85;20.37
63535;BME280;55128;50.230;18.944;2023-06-19T08:17:28;98552.94;;;40.29;18.49
63535;BME280;55128;50.230;18.944;2023-06-19T08:22:28;98550.72;;;40.68;19.31
63535;BME280;55128;50.230;18.944;2023-06-19T08:27:29;98548.59;;;41.49;18.00
63535;BME280;55128;50.230;18.944;2023-06-19T08:32:29;98551.06;;;39.53;19.22
63535;BME280;55128;50.230;18.944;2023-06-19T08:37:30;98550.78;;;40.78;18.04
63535;BME280;55128;50.230;18.944;2023-06-19T08:42:30;98542.75;;;40.87;18.15
63535;BME280;55128;50.230;18.944;2023-06-19T08:47:34;98540.88;;;40.18;18.69
63535;BME280;55128;50.230;18.944;2023-06-19T08:52:34;98547.47;;;41.50;16.32
63535;BME280;55128;50.230;18.944;2023-06-19T08:57:38;98541.19;;;41.12;16.35
63535;BME280;55128;50.230;18.944;2023-06-19T09:02:45;98540.44;;;40.74;16.98
63535;BME280;55128;50.230;18.944;2023-06-19T09:07:54;98539.25;;;41.07;17.05
63535;BME280;55128;50.230;18.944;2023-06-19T09:13:04;98528.72;;;39.70;18.52
63535;BME280;55128;50.230;18.944;2023-06-19T09:18:10;98534.19;;;42.34;15.07
63535;BME280;55128;50.230;18.944;2023-06-19T09:23:12;98529.59;;;41.41;15.25
63535;BME280;55128;50.230;18.944;2023-06-19T09:28:22;98527.31;;;40.32;16.69
63535;BME280;55128;50.230;18.944;2023-06-19T09:33:25;98535.75;;;40.04;16.37
63535;BME280;55128;50.230;18.944;2023-06-19T09:38:28;98534.44;;;41.76;15.74
63535;BME280;55128;50.230;18.944;2023-06-19T09:43:41;98526.84;;;41.51;16.42
63535;BME280;55128;50.230;18.944;2023-06-19T09:48:44;98520.56;;;39.08;16.95
63535;BME280;55128;50.230;18.944;2023-06-19T09:53:49;98510.69;;;37.43;18.85
63535;BME280;55128;50.230;18.944;2023-06-19T09:58:51;98499.44;;;36.69;19.69
63535;BME280;55128;50.230;18.944;2023-06-19T10:04:02;98504.88;;;34.58;21.76
63535;BME280;55128;50.230;18.944;2023-06-19T10:09:08;98497.53;;;33.06;24.25
63535;BME280;55128;50.230;18.944;2023-06-19T10:14:10;98499.28;;;34.28;21.96
63535;BME280;55128;50.230;18.944;2023-06-19T10:19:20;98486.06;;;33.16;23.68
63535;BME280;55128;50.230;18.944;2023-06-19T10:24:23;98491.38;;;32.59;24.62
63535;BME280;55128;50.230;18.944;2023-06-19T10:29:24;98479.78;;;32.96;25.01
63535;BME280;55128;50.230;18.944;2023-06-19T10:34:35;98490.78;;;32.96;27.12
63535;BME280;55128;50.230;18.944;2023-06-19T10:39:36;98485.41;;;32.69;24.27
63535;BME280;55128;50.230;18.944;2023-06-19T10:44:36;98476.25;;;31.02;26.57
63535;BME280;55128;50.230;18.944;2023-06-19T10:49:42;98473.47;;;31.90;25.92
63535;BME280;55128;50.230;18.944;2023-06-19T10:54:42;98471.97;;;31.54;25.24
63535;BME280;55128;50.230;18.944;2023-06-19T10:59:42;98474.66;;;31.41;25.32
63535;BME280;55128;50.230;18.944;2023-06-19T11:04:44;98480.78;;;31.43;26.89
63535;BME280;55128;50.230;18.944;2023-06-19T11:09:44;98475.28;;;31.29;26.44
63535;BME280;55128;50.230;18.944;2023-06-19T11:14:44;98478.50;;;31.80;25.06
63535;BME280;55128;50.230;18.944;2023-06-19T11:19:45;98478.88;;;30.75;25.67
63535;BME280;55128;50.230;18.944;2023-06-19T11:24:46;98471.47;;;31.30;26.46
63535;BME280;55128;50.230;18.944;2023-06-19T11:29:46;98467.13;;;31.89;26.58
63535;BME280;55128;50.230;18.944;2023-06-19T11:34:46;98461.41;;;31.77;26.26
63535;BME280;55128;50.230;18.944;2023-06-19T11:39:48;98458.47;;;31.72;24.89
63535;BME280;55128;50.230;18.944;2023-06-19T11:45:00;98453.28;;;31.09;25.07
63535;BME280;55128;50.230;18.944;2023-06-19T11:50:07;98458.97;;;31.08;26.86
63535;BME280;55128;50.230;18.944;2023-06-19T11:55:08;98454.91;;;30.90;26.62
63535;BME280;55128;50.230;18.944;2023-06-19T12:00:15;98444.88;;;31.24;26.24
63535;BME280;55128;50.230;18.944;2023-06-19T12:05:16;98448.50;;;30.35;26.96
63535;BME280;55128;50.230;18.944;2023-06-19T12:10:17;98441.66;;;30.52;26.92
63535;BME280;55128;50.230;18.944;2023-06-19T12:15:17;98442.41;;;29.76;26.63
63535;BME280;55128;50.230;18.944;2023-06-19T12:20:18;98435.38;;;29.45;28.09
63535;BME280;55128;50.230;18.944;2023-06-19T12:25:19;98444.38;;;30.17;26.95
63535;BME280;55128;50.230;18.944;2023-06-19T12:30:19;98437.31;;;30.30;27.10
63535;BME280;55128;50.230;18.944;2023-06-19T12:35:19;98433.25;;;30.60;26.10
63535;BME280;55128;50.230;18.944;2023-06-19T12:40:20;98434.22;;;30.88;26.52
63535;BME280;55128;50.230;18.944;2023-06-19T12:45:21;98428.50;;;30.06;27.37
63535;BME280;55128;50.230;18.944;2023-06-19T12:50:21;98434.72;;;30.21;26.69
63535;BME280;55128;50.230;18.944;2023-06-19T12:55:22;98434.19;;;30.04;27.60
63535;BME280;55128;50.230;18.944;2023-06-19T13:00:22;98421.19;;;30.13;27.58
63535;BME280;55128;50.230;18.944;2023-06-19T13:05:22;98426.81;;;30.88;26.39
63535;BME280;55128;50.230;18.944;2023-06-19T13:10:23;98422.69;;;30.57;26.57
63535;BME280;55128;50.230;18.944;2023-06-19T13:15:24;98414.81;;;30.06;25.72
63535;BME280;55128;50.230;18.944;2023-06-19T13:20:24;98414.50;;;30.22;27.14
63535;BME280;55128;50.230;18.944;2023-06-19T13:25:25;98416.63;;;30.69;25.85
63535;BME280;55128;50.230;18.944;2023-06-19T13:30:25;98417.13;;;30.37;25.71
63535;BME280;55128;50.230;18.944;2023-06-19T13:35:26;98413.44;;;30.65;24.23
63535;BME280;55128;50.230;18.944;2023-06-19T13:40:26;98414.91;;;30.61;25.54
63535;BME280;55128;50.230;18.944;2023-06-19T13:45:26;98408.72;;;30.39;25.05
63535;BME280;55128;50.230;18.944;2023-06-19T13:50:27;98398.94;;;30.30;25.39
63535;BME280;55128;50.230;18.944;2023-06-19T13:55:27;98393.88;;;29.92;24.47
63535;BME280;55128;50.230;18.944;2023-06-19T14:00:28;98396.69;;;29.49;23.73
63535;BME280;55128;50.230;18.944;2023-06-19T14:05:28;98397.03;;;29.39;25.52
63535;BME280;55128;50.230;18.944;2023-06-19T14:10:29;98397.78;;;29.54;25.04
63535;BME280;55128;50.230;18.944;2023-06-19T14:15:29;98395.75;;;29.84;24.09
63535;BME280;55128;50.230;18.944;2023-06-19T14:20:29;98392.25;;;29.48;24.84
63535;BME280;55128;50.230;18.944;2023-06-19T14:25:30;98397.59;;;29.84;25.55
63535;BME280;55128;50.230;18.944;2023-06-19T14:30:30;98396.94;;;29.75;25.97
63535;BME280;55128;50.230;18.944;2023-06-19T14:35:30;98395.22;;;29.74;24.63
63535;BME280;55128;50.230;18.944;2023-06-19T14:40:31;98393.75;;;29.50;24.60
63535;BME280;55128;50.230;18.944;2023-06-19T14:45:31;98392.91;;;29.50;25.11
63535;BME280;55128;50.230;18.944;2023-06-19T14:50:31;98386.44;;;29.57;25.00
63535;BME280;55128;50.230;18.944;2023-06-19T14:55:33;98390.59;;;29.75;24.96
63535;BME280;55128;50.230;18.944;2023-06-19T15:00:34;98387.34;;;29.36;24.91
63535;BME280;55128;50.230;18.944;2023-06-19T15:05:38;98392.22;;;29.69;25.39
63535;BME280;55128;50.230;18.944;2023-06-19T15:10:38;98387.44;;;29.28;24.32
63535;BME280;55128;50.230;18.944;2023-06-19T15:15:39;98378.06;;;29.37;24.11
63535;BME280;55128;50.230;18.944;2023-06-19T15:20:40;98387.81;;;29.46;25.17
63535;BME280;55128;50.230;18.944;2023-06-19T15:25:40;98377.56;;;29.27;25.18
63535;BME280;55128;50.230;18.944;2023-06-19T15:30:40;98378.03;;;29.59;24.83
63535;BME280;55128;50.230;18.944;2023-06-19T15:35:41;98377.88;;;29.67;24.50
63535;BME280;55128;50.230;18.944;2023-06-19T15:40:41;98375.69;;;29.77;24.62
63535;BME280;55128;50.230;18.944;2023-06-19T15:45:41;98379.59;;;29.68;23.57
63535;BME280;55128;50.230;18.944;2023-06-19T15:50:42;98370.81;;;29.23;24.10
63535;BME280;55128;50.230;18.944;2023-06-19T15:55:42;98373.78;;;29.28;25.49
63535;BME280;55128;50.230;18.944;2023-06-19T16:00:43;98371.19;;;29.20;25.95
63535;BME280;55128;50.230;18.944;2023-06-19T16:05:43;98371.56;;;29.17;26.65
63535;BME280;55128;50.230;18.944;2023-06-19T16:10:45;98364.38;;;28.94;26.08
63535;BME280;55128;50.230;18.944;2023-06-19T16:15:46;98369.84;;;28.73;25.91
63535;BME280;55128;50.230;18.944;2023-06-19T16:20:46;98364.25;;;28.59;26.83
63535;BME280;55128;50.230;18.944;2023-06-19T16:25:46;98358.78;;;28.44;27.74
63535;BME280;55128;50.230;18.944;2023-06-19T16:30:47;98369.06;;;28.42;27.02
63535;BME280;55128;50.230;18.944;2023-06-19T16:35:47;98368.50;;;28.17;28.25
63535;BME280;55128;50.230;18.944;2023-06-19T16:40:48;98361.41;;;28.38;28.60
63535;BME280;55128;50.230;18.944;2023-06-19T16:45:48;98373.53;;;27.99;29.53
63535;BME280;55128;50.230;18.944;2023-06-19T16:50:48;98361.00;;;28.04;29.92
63535;BME280;55128;50.230;18.944;2023-06-19T16:55:49;98367.13;;;27.91;30.36
63535;BME280;55128;50.230;18.944;2023-06-19T17:00:50;98366.47;;;28.04;30.21
63535;BME280;55128;50.230;18.944;2023-06-19T17:05:51;98365.09;;;27.85;30.06
63535;BME280;55128;50.230;18.944;2023-06-19T17:10:51;98365.78;;;27.72;29.66
63535;BME280;55128;50.230;18.944;2023-06-19T17:15:52;98359.66;;;27.56;30.57
63535;BME280;55128;50.230;18.944;2023-06-19T17:20:52;98367.97;;;27.39;34.06
63535;BME280;55128;50.230;18.944;2023-06-19T17:25:53;98369.44;;;27.27;34.47
63535;BME280;55128;50.230;18.944;2023-06-19T17:30:53;98363.84;;;26.97;37.62
63535;BME280;55128;50.230;18.944;2023-06-19T17:35:53;98359.88;;;26.85;36.84
63535;BME280;55128;50.230;18.944;2023-06-19T17:40:54;98361.53;;;26.63;35.81
63535;BME280;55128;50.230;18.944;2023-06-19T17:45:54;98364.31;;;26.46;38.72
63535;BME280;55128;50.230;18.944;2023-06-19T17:50:54;98364.50;;;26.13;39.97
63535;BME280;55128;50.230;18.944;2023-06-19T17:55:55;98368.84;;;25.75;41.18
63535;BME280;55128;50.230;18.944;2023-06-19T18:00:55;98371.78;;;25.40;41.98
63535;BME280;55128;50.230;18.944;2023-06-19T18:05:55;98366.50;;;24.98;43.87
63535;BME280;55128;50.230;18.944;2023-06-19T18:10:56;98378.38;;;24.72;43.49
63535;BME280;55128;50.230;18.944;2023-06-19T18:15:57;98382.41;;;24.52;43.09
63535;BME280;55128;50.230;18.944;2023-06-19T18:20:58;98371.31;;;24.02;44.72
63535;BME280;55128;50.230;18.944;2023-06-19T18:25:58;98369.47;;;23.77;46.58
63535;BME280;55128;50.230;18.944;2023-06-19T18:30:58;98362.41;;;23.58;46.81
63535;BME280;55128;50.230;18.944;2023-06-19T18:35:59;98364.72;;;23.26;47.72
63535;BME280;55128;50.230;18.944;2023-06-19T18:40:59;98366.75;;;22.70;48.67
63535;BME280;55128;50.230;18.944;2023-06-19T18:45:59;98364.66;;;22.64;49.94
63535;BME280;55128;50.230;18.944;2023-06-19T18:51:00;98368.50;;;22.44;49.74
63535;BME280;55128;50.230;18.944;2023-06-19T18:56:00;98383.03;;;22.15;52.30
63535;BME280;55128;50.230;18.944;2023-06-19T19:01:00;98390.41;;;21.85;52.72
63535;BME280;55128;50.230;18.944;2023-06-19T19:06:01;98386.25;;;21.53;53.16
63535;BME280;55128;50.230;18.944;2023-06-19T19:11:02;98392.38;;;21.46;53.98
63535;BME280;55128;50.230;18.944;2023-06-19T19:16:03;98396.50;;;21.30;55.38
63535;BME280;55128;50.230;18.944;2023-06-19T19:21:04;98409.56;;;21.25;55.92
63535;BME280;55128;50.230;18.944;2023-06-19T19:26:05;98421.50;;;21.03;57.80
63535;BME280;55128;50.230;18.944;2023-06-19T19:31:05;98429.44;;;20.85;58.51
63535;BME280;55128;50.230;18.944;2023-06-19T19:36:06;98420.28;;;20.47;60.07
63535;BME280;55128;50.230;18.944;2023-06-19T19:41:07;98423.78;;;20.28;60.41
63535;BME280;55128;50.230;18.944;2023-06-19T19:46:08;98429.28;;;20.27;60.08
63535;BME280;55128;50.230;18.944;2023-06-19T19:51:08;98445.06;;;20.00;60.56
63535;BME280;55128;50.230;18.944;2023-06-19T19:56:08;98445.75;;;19.72;61.21
63535;BME280;55128;50.230;18.944;2023-06-19T20:01:09;98446.97;;;19.79;60.87
63535;BME280;55128;50.230;18.944;2023-06-19T20:06:09;98453.97;;;19.70;61.27
63535;BME280;55128;50.230;18.944;2023-06-19T20:11:13;98457.28;;;19.53;61.80
63535;BME280;55128;50.230;18.944;2023-06-19T20:16:13;98446.03;;;19.27;61.89
63535;BME280;55128;50.230;18.944;2023-06-19T20:21:14;98440.66;;;19.27;61.39
63535;BME280;55128;50.230;18.944;2023-06-19T20:26:14;98440.91;;;18.91;62.41
63535;BME280;55128;50.230;18.944;2023-06-19T20:31:16;98453.63;;;18.89;62.80
63535;BME280;55128;50.230;18.944;2023-06-19T20:36:16;98446.81;;;18.74;64.06
63535;BME280;55128;50.230;18.944;2023-06-19T20:41:16;98442.19;;;18.64;64.07
63535;BME280;55128;50.230;18.944;2023-06-19T20:46:17;98447.84;;;18.39;64.79
63535;BME280;55128;50.230;18.944;2023-06-19T20:51:18;98460.44;;;18.38;64.16
63535;BME280;55128;50.230;18.944;2023-06-19T20:56:19;98456.44;;;18.21;64.65
63535;BME280;55128;50.230;18.944;2023-06-19T21:01:23;98462.03;;;18.07;65.03
63535;BME280;55128;50.230;18.944;2023-06-19T21:06:24;98467.06;;;18.00;65.90
63535;BME280;55128;50.230;18.944;2023-06-19T21:11:25;98473.28;;;18.01;64.80
63535;BME280;55128;50.230;18.944;2023-06-19T21:16:25;98466.41;;;17.74;65.87
63535;BME280;55128;50.230;18.944;2023-06-19T21:21:26;98466.59;;;17.60;66.45
63535;BME280;55128;50.230;18.944;2023-06-19T21:26:27;98462.97;;;17.61;66.02
63535;BME280;55128;50.230;18.944;2023-06-19T21:31:27;98456.47;;;17.52;66.51
63535;BME280;55128;50.230;18.944;2023-06-19T21:36:28;98456.81;;;17.47;66.63
63535;BME280;55128;50.230;18.944;2023-06-19T21:41:28;98455.84;;;17.48;66.54
63535;BME280;55128;50.230;18.944;2023-06-19T21:46:28;98465.31;;;17.41;66.54
63535;BME280;55128;50.230;18.944;2023-06-19T21:51:29;98460.44;;;17.35;67.23
63535;BME280;55128;50.230;18.944;2023-06-19T21:56:29;98462.63;;;17.30;67.21
63535;BME280;55128;50.230;18.944;2023-06-19T22:01:29;98450.88;;;17.20;67.99
63535;BME280;55128;50.230;18.944;2023-06-19T22:06:30;98453.13;;;17.02;68.69
63535;BME280;55128;50.230;18.944;2023-06-19T22:11:30;98466.25;;;16.94;69.80
63535;BME280;55128;50.230;18.944;2023-06-19T22:16:30;98470.53;;;16.96;69.34
63535;BME280;55128;50.230;18.944;2023-06-19T22:21:31;98465.28;;;16.95;69.40
63535;BME280;55128;50.230;18.944;2023-06-19T22:26:31;98459.50;;;17.12;69.41
63535;BME280;55128;50.230;18.944;2023-06-19T22:31:37;98456.78;;;17.01;69.86
63535;BME280;55128;50.230;18.944;2023-06-19T22:36:37;98459.59;;;16.99;69.77
63535;BME280;55128;50.230;18.944;2023-06-19T22:41:38;98462.22;;;16.88;70.62
63535;BME280;55128;50.230;18.944;2023-06-19T22:46:38;98455.78;;;16.78;70.72
63535;BME280;55128;50.230;18.944;2023-06-19T22:51:39;98464.69;;;16.78;71.34
63535;BME280;55128;50.230;18.944;2023-06-19T22:56:39;98456.84;;;16.88;71.08
63535;BME280;55128;50.230;18.944;2023-06-19T23:01:40;98455.91;;;17.00;71.82
63535;BME280;55128;50.230;18.944;2023-06-19T23:06:40;98465.38;;;17.17;72.27
63535;BME280;55128;50.230;18.944;2023-06-19T23:11:44;98457.59;;;17.25;71.83
63535;BME280;55128;50.230;18.944;2023-06-19T23:16:48;98462.94;;;17.14;71.34
63535;BME280;55128;50.230;18.944;2023-06-19T23:21:49;98449.16;;;17.19;71.15
63535;BME280;55128;50.230;18.944;2023-06-19T23:26:49;98449.63;;;17.13;71.67
63535;BME280;55128;50.230;18.944;2023-06-19T23:31:49;98459.44;;;17.25;71.21
63535;BME280;55128;50.230;18.944;2023-06-19T23:36:50;98455.78;;;17.26;71.48
63535;BME280;55128;50.230;18.944;2023-06-19T23:41:51;98465.06;;;17.33;71.52
63535;BME280;55128;50.230;18.944;2023-06-19T23:46:52;98452.34;;;17.24;71.93
63535;BME280;55128;50.230;18.944;2023-06-19T23:51:52;98456.72;;;17.14;72.80
63535;BME280;55128;50.230;18.944;2023-06-19T23:56:53;98463.25;;;17.09;73.12
